PWSweather.com
Personal Weather Stations
Station Observations
CHEVALR
Cheval Rigon, Ferrieres Sur SichonFR

Cheval RigonFerrieres Sur SichonFR

Lat: 46.02966, Lon: 3.61771

Elevation: 1923

Station Type: Davis Vantage Pro2

Latest ConditionsUpdated 10:00:02 AM GMT+01:01 Friday, Feb 22, 2019
Currently Today's Max Today's Min Today's Average
Temperature 50.5°F10.3°C 50.5°F10.3°C 41.5°F5.3°C 43.6°F6.4°C
Dew Point 42.2°F5.7°C 42.2°F5.7°C 31.6°F-0.2°C 33.8°F1.0°C
Winds Calm Calm 2.0 mph -3.2 kmh - - 0.2 mph 0.3 kmh
Wind Gusts 1.0 mph1.6 kmh 2.0 mph3.2 kmh - -
Humidity 73% 78% 61% 68%
Pressure 30.53 in1033.9 mb 30.53 in1033.9 mb 30.48 in1032.2 mb -
Hour Temp Dew Point Humidity Winds Wind Gusts Pressure Precip Precip Rate Daily Precip Total
10:00 AM 50.5°F10.3°C 42.2°F5.7°C 73% Calm Calm 1.0 mph1.6 kmh 30.53 in1033.9 mb 0.00 in0.0 mm 0.00 in0.0 mm 0.00 in0.0 mm
09:44 AM 48.4°F9.1°C 41.2°F5.1°C 76% Calm Calm -- 30.53 in1033.9 mb 0.00 in0.0 mm 0.00 in0.0 mm 0.00 in0.0 mm
09:30 AM 45.2°F7.3°C 38.8°F3.8°C 78% 1.0 mph SE1.6 kmh SE 1.0 mph1.6 kmh 30.53 in1033.9 mb 0.00 in0.0 mm 0.00 in0.0 mm 0.00 in0.0 mm
09:14 AM 44.0°F6.7°C 37.3°F2.9°C 77% Calm Calm -- 30.53 in1033.9 mb 0.00 in0.0 mm 0.00 in0.0 mm 0.00 in0.0 mm
09:00 AM 43.8°F6.6°C 37.4°F3.0°C 78% Calm Calm -- 30.53 in1033.9 mb 0.00 in0.0 mm 0.00 in0.0 mm 0.00 in0.0 mm
08:44 AM 43.1°F6.2°C 36.7°F2.6°C 78% Calm Calm -- 30.53 in1033.9 mb 0.00 in0.0 mm 0.00 in0.0 mm 0.00 in0.0 mm
08:29 AM 42.4°F5.8°C 35.7°F2.1°C 77% Calm Calm -- 30.52 in1033.5 mb 0.00 in0.0 mm 0.00 in0.0 mm 0.00 in0.0 mm
08:15 AM 42.0°F5.6°C 35.3°F1.8°C 77% Calm Calm -- 30.52 in1033.5 mb 0.00 in0.0 mm 0.00 in0.0 mm 0.00 in0.0 mm
07:59 AM 41.5°F5.3°C 34.2°F1.2°C 75% Calm Calm -- 30.51 in1033.2 mb 0.00 in0.0 mm 0.00 in0.0 mm 0.00 in0.0 mm
07:45 AM 42.2°F5.7°C 33.5°F0.8°C 71% Calm Calm -- 30.51 in1033.2 mb 0.00 in0.0 mm 0.00 in0.0 mm 0.00 in0.0 mm
07:30 AM 42.6°F5.9°C 33.2°F0.7°C 69% Calm Calm -- 30.50 in1032.8 mb 0.00 in0.0 mm 0.00 in0.0 mm 0.00 in0.0 mm
07:15 AM 42.8°F6.0°C 33.4°F0.8°C 69% Calm Calm -- 30.50 in1032.8 mb 0.00 in0.0 mm 0.00 in0.0 mm 0.00 in0.0 mm
07:00 AM 42.9°F6.1°C 33.4°F0.8°C 69% Calm Calm -- 30.50 in1032.8 mb 0.00 in0.0 mm 0.00 in0.0 mm 0.00 in0.0 mm
06:44 AM 43.1°F6.2°C 33.3°F0.7°C 68% Calm Calm -- 30.50 in1032.8 mb 0.00 in0.0 mm 0.00 in0.0 mm 0.00 in0.0 mm
06:29 AM 43.5°F6.4°C 33.3°F0.7°C 67% Calm Calm -- 30.50 in1032.8 mb 0.00 in0.0 mm 0.00 in0.0 mm 0.00 in0.0 mm
06:15 AM 43.5°F6.4°C 33.7°F0.9°C 68% Calm Calm -- 30.49 in1032.5 mb 0.00 in0.0 mm 0.00 in0.0 mm 0.00 in0.0 mm
06:00 AM 43.3°F6.3°C 33.5°F0.8°C 68% Calm Calm -- 30.49 in1032.5 mb 0.00 in0.0 mm 0.00 in0.0 mm 0.00 in0.0 mm
05:44 AM 43.3°F6.3°C 32.3°F0.2°C 65% Calm Calm -- 30.49 in1032.5 mb 0.00 in0.0 mm 0.00 in0.0 mm 0.00 in0.0 mm
05:30 AM 43.0°F6.1°C 31.7°F-0.2°C 64% Calm Calm -- 30.49 in1032.5 mb 0.00 in0.0 mm 0.00 in0.0 mm 0.00 in0.0 mm
05:15 AM 42.4°F5.8°C 31.9°F-0.1°C 66% Calm Calm -- 30.49 in1032.5 mb 0.00 in0.0 mm 0.00 in0.0 mm 0.00 in0.0 mm
04:59 AM 42.9°F6.1°C 32.3°F0.2°C 66% Calm Calm -- 30.49 in1032.5 mb 0.00 in0.0 mm 0.00 in0.0 mm 0.00 in0.0 mm
04:45 AM 42.2°F5.7°C 31.7°F-0.2°C 66% Calm Calm -- 30.49 in1032.5 mb 0.00 in0.0 mm 0.00 in0.0 mm 0.00 in0.0 mm
04:30 AM 42.7°F5.9°C 32.5°F0.3°C 67% 1.0 mph SE1.6 kmh SE 1.0 mph1.6 kmh 30.49 in1032.5 mb 0.00 in0.0 mm 0.00 in0.0 mm 0.00 in0.0 mm
04:15 AM 42.5°F5.8°C 32.0°F0.0°C 66% Calm Calm 1.0 mph1.6 kmh 30.48 in1032.2 mb 0.00 in0.0 mm 0.00 in0.0 mm 0.00 in0.0 mm
04:00 AM 43.3°F6.3°C 32.7°F0.4°C 66% 1.0 mph SE1.6 kmh SE 2.0 mph3.2 kmh 30.48 in1032.2 mb 0.00 in0.0 mm 0.00 in0.0 mm 0.00 in0.0 mm
03:45 AM 43.3°F6.3°C 32.3°F0.2°C 65% Calm Calm -- 30.48 in1032.2 mb 0.00 in0.0 mm 0.00 in0.0 mm 0.00 in0.0 mm
03:29 AM 43.2°F6.2°C 32.6°F0.3°C 66% Calm Calm -- 30.49 in1032.5 mb 0.00 in0.0 mm 0.00 in0.0 mm 0.00 in0.0 mm
03:15 AM 43.1°F6.2°C 32.9°F0.5°C 67% Calm Calm -- 30.49 in1032.5 mb 0.00 in0.0 mm 0.00 in0.0 mm 0.00 in0.0 mm
02:59 AM 42.5°F5.8°C 32.3°F0.2°C 67% Calm Calm 2.0 mph3.2 kmh 30.49 in1032.5 mb 0.00 in0.0 mm 0.00 in0.0 mm 0.00 in0.0 mm
02:45 AM 42.8°F6.0°C 33.0°F0.6°C 68% Calm Calm 1.0 mph1.6 kmh 30.49 in1032.5 mb 0.00 in0.0 mm 0.00 in0.0 mm 0.00 in0.0 mm
02:30 AM 44.1°F6.7°C 33.1°F0.6°C 65% Calm Calm -- 30.49 in1032.5 mb 0.00 in0.0 mm 0.00 in0.0 mm 0.00 in0.0 mm
02:14 AM 43.3°F6.3°C 32.7°F0.4°C 66% 1.0 mph SE1.6 kmh SE 2.0 mph3.2 kmh 30.49 in1032.5 mb 0.00 in0.0 mm 0.00 in0.0 mm 0.00 in0.0 mm
02:00 AM 43.5°F6.4°C 32.5°F0.3°C 65% Calm Calm 1.0 mph1.6 kmh 30.49 in1032.5 mb 0.00 in0.0 mm 0.00 in0.0 mm 0.00 in0.0 mm
01:44 AM 43.8°F6.6°C 32.8°F0.4°C 65% 1.0 mph SE1.6 kmh SE 2.0 mph3.2 kmh 30.49 in1032.5 mb 0.00 in0.0 mm 0.00 in0.0 mm 0.00 in0.0 mm
01:30 AM 44.2°F6.8°C 32.8°F0.4°C 64% 1.0 mph SE1.6 kmh SE 1.0 mph1.6 kmh 30.49 in1032.5 mb 0.00 in0.0 mm 0.00 in0.0 mm 0.00 in0.0 mm
01:15 AM 45.3°F7.4°C 33.1°F0.6°C 62% Calm Calm -- 30.49 in1032.5 mb 0.00 in0.0 mm 0.00 in0.0 mm 0.00 in0.0 mm
01:00 AM 43.6°F6.4°C 32.6°F0.3°C 65% Calm Calm 2.0 mph3.2 kmh 30.49 in1032.5 mb 0.00 in0.0 mm 0.00 in0.0 mm 0.00 in0.0 mm
12:45 AM 42.9°F6.1°C 31.6°F-0.2°C 64% 1.0 mph SE1.6 kmh SE 2.0 mph3.2 kmh 30.49 in1032.5 mb 0.00 in0.0 mm 0.00 in0.0 mm 0.00 in0.0 mm
12:30 AM 43.6°F6.4°C 32.2°F0.1°C 64% 2.0 mph SE3.2 kmh SE 2.0 mph3.2 kmh 30.49 in1032.5 mb 0.00 in0.0 mm 0.00 in0.0 mm 0.00 in0.0 mm
12:15 AM 44.5°F6.9°C 32.3°F0.2°C 62% Calm Calm 1.0 mph1.6 kmh 30.49 in1032.5 mb 0.00 in0.0 mm 0.00 in0.0 mm 0.00 in0.0 mm
12:00 AM 45.5°F7.5°C 32.9°F0.5°C 61% 1.0 mph SE1.6 kmh SE 2.0 mph3.2 kmh 30.49 in1032.5 mb 0.00 in0.0 mm 0.00 in0.0 mm 0.00 in0.0 mm